createdAt,value
2024-01-05T00:01:06.999Z,1.90
2024-01-05T00:03:38.598Z,1.70
2024-01-05T00:06:06.028Z,2.08
2024-01-05T00:08:32.908Z,2.10
2024-01-05T00:10:59.986Z,2.20
2024-01-05T00:13:26.760Z,1.70
2024-01-05T00:15:53.832Z,1.88
2024-01-05T00:18:20.675Z,2.17
2024-01-05T00:20:47.790Z,2.42
2024-01-05T00:23:14.530Z,1.75
2024-01-05T00:25:41.544Z,2.20
2024-01-05T00:28:08.450Z,2.30
2024-01-05T00:30:36.312Z,2.00
2024-01-05T00:33:03.582Z,2.10
2024-01-05T00:35:30.768Z,2.00
2024-01-05T00:37:57.705Z,1.80
2024-01-05T00:40:24.761Z,2.78
2024-01-05T00:42:51.547Z,3.08
2024-01-05T00:45:18.612Z,1.90
2024-01-05T00:47:45.443Z,2.20
2024-01-05T00:50:12.592Z,1.90
2024-01-05T00:52:39.465Z,2.10
2024-01-05T00:55:06.617Z,12.63
2024-01-05T00:57:33.516Z,1.90
2024-01-05T01:00:00.821Z,2.10
2024-01-05T01:02:27.704Z,2.00
2024-01-05T01:04:54.823Z,2.15
2024-01-05T01:07:21.640Z,1.40
2024-01-05T01:09:48.713Z,2.08
2024-01-05T01:12:15.555Z,1.98
2024-01-05T01:14:42.696Z,1.95
2024-01-05T01:17:09.484Z,2.10
2024-01-05T01:19:36.671Z,2.78
2024-01-05T01:22:04.818Z,2.80
2024-01-05T01:24:31.879Z,2.55
2024-01-05T01:26:58.765Z,2.45
2024-01-05T01:29:26.349Z,19.95
2024-01-05T01:31:53.385Z,1.80
2024-01-05T01:34:20.516Z,5.10
2024-01-05T01:36:47.482Z,9.35
2024-01-05T01:39:14.675Z,2.55
2024-01-05T01:41:43.548Z,2.40
2024-01-05T01:44:10.663Z,2.10
2024-01-05T01:46:38.107Z,2.08
2024-01-05T01:49:06.464Z,2.00
2024-01-05T01:51:33.801Z,2.03
2024-01-05T01:54:03.808Z,2.03
2024-01-05T01:56:32.559Z,2.20
2024-01-05T01:59:00.273Z,1.55
2024-01-05T02:01:28.296Z,1.80
2024-01-05T02:03:56.791Z,2.30
2024-01-05T02:06:23.791Z,1.95
2024-01-05T02:08:51.674Z,2.25
2024-01-05T02:11:19.038Z,1.85
2024-01-05T02:13:46.050Z,1.95
2024-01-05T02:16:12.845Z,3.10
2024-01-05T02:18:40.046Z,2.63
2024-01-05T02:21:09.867Z,2.58
2024-01-05T02:23:36.987Z,1.90
2024-01-05T02:26:04.206Z,2.08
2024-01-05T02:28:31.240Z,3.17
2024-01-05T02:30:58.336Z,2.00
2024-01-05T02:33:25.948Z,2.88
2024-01-05T02:35:53.153Z,2.42
2024-01-05T02:38:20.288Z,2.38
2024-01-05T02:40:47.128Z,2.20
2024-01-05T02:43:14.216Z,2.20
2024-01-05T02:45:41.039Z,2.00
2024-01-05T02:48:09.000Z,2.22
2024-01-05T02:50:35.935Z,2.28
2024-01-05T02:53:03.414Z,2.28
2024-01-05T02:55:30.332Z,2.35
2024-01-05T02:57:57.381Z,2.30
2024-01-05T03:00:24.375Z,2.28
2024-01-05T03:02:51.439Z,1.92
2024-01-05T03:05:18.248Z,2.45
2024-01-05T03:07:46.711Z,2.50
2024-01-05T03:10:13.587Z,2.40
2024-01-05T03:12:40.636Z,2.30
2024-01-05T03:15:08.080Z,2.85
2024-01-05T03:17:35.252Z,2.60
2024-01-05T03:20:02.123Z,2.85
2024-01-05T03:22:31.300Z,2.50
2024-01-05T03:24:59.015Z,2.90
2024-01-05T03:27:26.131Z,2.22
2024-01-05T03:29:53.077Z,2.72
2024-01-05T03:32:20.173Z,2.35
2024-01-05T03:34:46.993Z,3.00
2024-01-05T03:37:14.074Z,3.10
2024-01-05T03:39:40.995Z,2.78
2024-01-05T03:42:08.144Z,3.15
2024-01-05T03:44:35.912Z,3.22
2024-01-05T03:47:03.074Z,2.42
2024-01-05T03:49:29.921Z,3.42
2024-01-05T03:51:56.957Z,3.40
2024-01-05T03:54:23.745Z,2.83
2024-01-05T03:56:50.854Z,2.92
2024-01-05T03:59:17.720Z,2.95
2024-01-05T04:01:48.951Z,2.90
2024-01-05T04:04:16.543Z,3.20
2024-01-05T04:06:44.400Z,2.97
2024-01-05T04:09:11.532Z,2.92
2024-01-05T04:11:39.285Z,2.90
2024-01-05T04:14:07.163Z,3.67
2024-01-05T04:16:34.460Z,3.92
2024-01-05T04:19:01.315Z,3.10
2024-01-05T04:21:28.438Z,4.45
2024-01-05T04:23:59.345Z,4.97
2024-01-05T04:26:27.300Z,4.75
2024-01-05T04:28:54.302Z,3.70
2024-01-05T04:31:21.591Z,3.38
2024-01-05T04:33:48.597Z,3.88
2024-01-05T04:36:20.313Z,3.60
2024-01-05T04:38:47.287Z,3.42
2024-01-05T04:41:17.395Z,3.28
2024-01-05T04:43:45.604Z,2.45
2024-01-05T04:46:13.170Z,2.83
2024-01-05T04:48:40.085Z,3.95
2024-01-05T04:51:07.595Z,3.40
2024-01-05T04:53:34.697Z,3.00
2024-01-05T04:56:01.824Z,3.50
2024-01-05T04:58:28.821Z,3.08
2024-01-05T05:00:56.386Z,3.38
2024-01-05T05:03:25.332Z,2.85
2024-01-05T05:05:52.725Z,2.80
2024-01-05T05:08:19.791Z,3.00
2024-01-05T05:10:46.858Z,3.20
2024-01-05T05:13:13.619Z,3.40
2024-01-05T05:15:40.846Z,2.80
2024-01-05T05:18:08.146Z,3.17
2024-01-05T05:20:35.410Z,3.40
2024-01-05T05:23:02.380Z,3.10
2024-01-05T05:25:29.618Z,3.55
2024-01-05T05:27:56.401Z,3.10
2024-01-05T05:30:23.553Z,3.30
2024-01-05T05:32:50.554Z,4.32
2024-01-05T05:35:17.750Z,3.92
2024-01-05T05:37:44.597Z,4.30
2024-01-05T05:40:12.829Z,3.75
2024-01-05T05:42:39.670Z,4.63
2024-01-05T05:45:07.297Z,4.40
2024-01-05T05:47:34.515Z,3.80
2024-01-05T05:50:01.768Z,3.83
2024-01-05T05:52:30.838Z,4.43
2024-01-05T05:54:58.253Z,3.58
2024-01-05T05:57:25.277Z,4.32
2024-01-05T05:59:53.111Z,4.75
2024-01-05T06:02:20.014Z,4.47
2024-01-05T06:04:47.131Z,4.55
2024-01-05T06:07:14.132Z,4.80
2024-01-05T06:09:40.995Z,4.80
2024-01-05T06:12:08.225Z,4.22
2024-01-05T06:14:35.075Z,4.90
2024-01-05T06:17:02.064Z,4.53
2024-01-05T06:19:28.963Z,3.80
2024-01-05T06:21:58.689Z,3.40
2024-01-05T06:24:25.760Z,3.50
2024-01-05T06:26:53.047Z,3.95
2024-01-05T06:29:19.968Z,3.28
2024-01-05T06:31:47.439Z,4.00
2024-01-05T06:34:14.636Z,4.53
2024-01-05T06:36:41.840Z,4.72
2024-01-05T06:39:08.898Z,4.72
2024-01-05T06:41:36.101Z,4.78
2024-01-05T06:44:03.711Z,4.57
2024-01-05T06:46:31.933Z,4.38
2024-01-05T06:48:59.103Z,4.20
2024-01-05T06:51:31.538Z,7.30
2024-01-05T06:53:59.912Z,4.53
2024-01-05T06:56:29.427Z,4.30
2024-01-05T06:58:56.939Z,3.60
2024-01-05T07:01:24.327Z,4.88
2024-01-05T07:03:51.450Z,4.00
2024-01-05T07:06:18.944Z,3.97
2024-01-05T07:08:45.934Z,4.30
2024-01-05T07:11:23.397Z,4.50
2024-01-05T07:13:50.970Z,4.20
2024-01-05T07:16:18.362Z,4.60
2024-01-05T07:18:46.115Z,4.30
2024-01-05T07:21:14.666Z,4.70
2024-01-05T07:23:41.535Z,3.42
2024-01-05T07:26:08.629Z,3.60
2024-01-05T07:28:35.474Z,3.65
2024-01-05T07:31:06.840Z,3.88
2024-01-05T07:33:34.269Z,3.65
2024-01-05T07:36:07.890Z,7.63
2024-01-05T07:38:36.229Z,7.18
2024-01-05T07:41:03.904Z,8.80
2024-01-05T07:43:34.008Z,6.63
2024-01-05T07:46:04.456Z,5.85
2024-01-05T07:48:31.660Z,7.95
2024-01-05T07:50:59.189Z,8.18
2024-01-05T07:53:26.148Z,9.27
2024-01-05T07:55:53.308Z,7.28
2024-01-05T07:58:20.141Z,5.93
2024-01-05T08:00:47.521Z,6.10
2024-01-05T08:03:14.409Z,6.80
2024-01-05T08:05:45.019Z,6.15
2024-01-05T08:08:13.839Z,6.78
2024-01-05T08:10:40.970Z,8.50
2024-01-05T08:13:07.990Z,9.55
2024-01-05T08:15:35.315Z,10.20
2024-01-05T08:18:04.203Z,10.90
2024-01-05T08:20:34.544Z,11.50
2024-01-05T08:23:01.898Z,11.65
2024-01-05T08:25:28.935Z,9.55
2024-01-05T08:27:55.809Z,7.78
2024-01-05T08:30:23.301Z,8.30
2024-01-05T08:32:56.059Z,7.82
2024-01-05T08:35:23.553Z,9.13
2024-01-05T08:37:50.386Z,7.55
2024-01-05T08:40:18.600Z,8.48
2024-01-05T08:42:47.356Z,7.35
2024-01-05T08:45:18.298Z,8.52
2024-01-05T08:47:45.523Z,7.25
2024-01-05T08:50:13.631Z,6.30
2024-01-05T08:52:40.907Z,6.72
2024-01-05T08:55:08.462Z,6.53
2024-01-05T08:57:35.559Z,7.35
2024-01-05T09:00:04.242Z,7.50
2024-01-05T09:02:31.178Z,5.55
2024-01-05T09:04:59.168Z,4.95
2024-01-05T09:07:26.028Z,7.15
2024-01-05T09:09:53.024Z,5.50
2024-01-05T09:12:19.867Z,6.60
2024-01-05T09:14:46.910Z,6.05
2024-01-05T09:17:14.055Z,5.70
2024-01-05T09:19:41.356Z,6.63
2024-01-05T09:22:08.757Z,6.93
2024-01-05T09:24:37.786Z,6.78
2024-01-05T09:27:05.449Z,7.85
2024-01-05T09:29:33.381Z,7.78
2024-01-05T09:32:00.436Z,7.50
2024-01-05T09:34:27.642Z,8.65
2024-01-05T09:36:55.174Z,8.95
2024-01-05T09:39:22.277Z,8.75
2024-01-05T09:41:49.711Z,7.63
2024-01-05T09:44:17.481Z,9.30
2024-01-05T09:46:45.628Z,9.75
2024-01-05T09:49:18.178Z,8.63
2024-01-05T09:51:46.087Z,9.43
2024-01-05T09:54:14.917Z,9.13
2024-01-05T09:56:46.613Z,8.82
2024-01-05T09:59:13.832Z,8.75
2024-01-05T10:01:42.702Z,10.50
2024-01-05T10:04:10.771Z,9.60
2024-01-05T10:06:37.835Z,10.10
2024-01-05T10:09:07.305Z,9.90
2024-01-05T10:11:38.045Z,11.02
2024-01-05T10:14:07.441Z,10.75
2024-01-05T10:16:41.389Z,10.32
2024-01-05T10:19:15.306Z,8.50
2024-01-05T10:21:47.071Z,9.52
2024-01-05T10:24:24.548Z,8.93
2024-01-05T10:27:13.409Z,8.07
2024-01-05T10:29:46.257Z,8.55
2024-01-05T10:32:13.556Z,8.90
2024-01-05T10:34:42.367Z,9.48
2024-01-05T10:37:10.637Z,7.68
2024-01-05T10:39:38.222Z,9.43
2024-01-05T10:42:24.140Z,9.38
2024-01-05T10:44:56.782Z,8.60
2024-01-05T10:47:33.021Z,8.43
2024-01-05T10:50:00.748Z,9.75
2024-01-05T10:52:33.338Z,7.57
2024-01-05T10:55:05.640Z,8.52
2024-01-05T10:57:37.032Z,9.38
2024-01-05T11:00:06.948Z,8.82
2024-01-05T11:02:42.080Z,9.48
2024-01-05T11:05:12.562Z,11.13
2024-01-05T11:07:41.158Z,10.30
2024-01-05T11:10:33.463Z,11.02
2024-01-05T11:13:31.404Z,11.88
2024-01-05T11:16:26.511Z,11.52
2024-01-05T11:19:30.678Z,9.75
2024-01-05T11:22:07.204Z,9.52
2024-01-05T11:24:35.333Z,11.30
2024-01-05T11:27:29.785Z,11.45
2024-01-05T11:29:57.724Z,9.98
2024-01-05T11:32:40.848Z,9.70
2024-01-05T11:35:40.605Z,11.40
2024-01-05T11:38:28.217Z,9.80
2024-01-05T11:40:55.093Z,12.88
2024-01-05T11:43:39.436Z,10.15
2024-01-05T11:46:07.215Z,17.05
2024-01-05T11:48:38.705Z,11.82
2024-01-05T11:51:10.648Z,29.08
2024-01-05T11:53:38.087Z,27.55
2024-01-05T11:56:11.541Z,13.18
2024-01-05T11:58:44.525Z,9.23
2024-01-05T12:01:13.473Z,9.60
2024-01-05T12:03:41.501Z,10.00
2024-01-05T12:06:11.531Z,23.50
2024-01-05T12:08:41.601Z,103.95
2024-01-05T12:11:11.684Z,40.20
2024-01-05T12:13:40.287Z,12.20
2024-01-05T12:16:09.603Z,9.07
2024-01-05T12:18:44.993Z,9.23
2024-01-05T12:21:15.725Z,17.30
2024-01-05T12:23:55.839Z,10.30
2024-01-05T12:26:23.810Z,9.80
2024-01-05T12:28:51.405Z,9.90
2024-01-05T12:31:19.409Z,13.00
2024-01-05T12:33:47.373Z,46.30
2024-01-05T12:36:24.966Z,17.67
2024-01-05T12:41:21.423Z,11.75
2024-01-05T12:43:53.509Z,9.57
2024-01-05T12:48:48.561Z,13.93
2024-01-05T12:51:21.092Z,17.23
2024-01-05T12:54:04.541Z,11.57
2024-01-05T12:56:32.204Z,11.20
2024-01-05T12:58:59.569Z,12.07
2024-01-05T13:01:26.803Z,9.65
2024-01-05T13:03:58.730Z,10.52
2024-01-05T13:08:54.527Z,10.10
2024-01-05T13:11:22.290Z,10.70
2024-01-05T13:13:50.881Z,10.27
2024-01-05T13:16:18.085Z,10.23
2024-01-05T13:18:45.574Z,12.50
2024-01-05T13:21:12.819Z,11.40
2024-01-05T13:23:42.058Z,12.35
2024-01-05T13:26:09.368Z,12.63
2024-01-05T13:28:41.792Z,12.25
2024-01-05T13:31:10.033Z,12.23
2024-01-05T13:33:37.766Z,13.00
2024-01-05T13:36:04.972Z,11.98
2024-01-05T13:38:32.212Z,10.60
2024-01-05T13:40:59.088Z,11.73
2024-01-05T13:43:26.787Z,11.43
2024-01-05T13:45:56.866Z,12.13
2024-01-05T13:48:24.101Z,12.38
2024-01-05T13:50:51.310Z,13.13
2024-01-05T13:53:18.523Z,13.73
2024-01-05T13:55:45.461Z,15.25
2024-01-05T13:58:12.643Z,16.00
2024-01-05T14:00:42.702Z,13.02
2024-01-05T14:03:10.923Z,14.85
2024-01-05T14:05:38.830Z,18.52
2024-01-05T14:08:06.457Z,19.35
2024-01-05T14:10:33.491Z,16.60
2024-01-05T14:13:00.558Z,14.38
2024-01-05T14:15:27.566Z,13.50
2024-01-05T14:17:54.742Z,14.90
2024-01-05T14:20:22.076Z,15.48
2024-01-05T14:22:49.261Z,14.95
2024-01-05T14:25:16.053Z,16.67
2024-01-05T14:27:43.327Z,16.15
2024-01-05T14:30:10.697Z,18.13
2024-01-05T14:32:37.976Z,17.08
2024-01-05T14:35:08.460Z,19.35
2024-01-05T14:37:38.063Z,17.02
2024-01-05T14:40:07.137Z,17.40
2024-01-05T14:42:34.355Z,17.13
2024-01-05T14:45:01.215Z,16.40
2024-01-05T14:47:29.199Z,15.30
2024-01-05T14:49:56.406Z,16.33
2024-01-05T14:52:23.780Z,15.07
2024-01-05T14:54:50.547Z,16.60
2024-01-05T14:57:17.724Z,17.60
2024-01-05T14:59:44.614Z,18.67
2024-01-05T15:02:11.709Z,19.35
2024-01-05T15:04:38.608Z,17.92
2024-01-05T15:07:05.773Z,20.73
2024-01-05T15:09:32.672Z,21.48
2024-01-05T15:11:59.951Z,21.80
2024-01-05T15:14:28.114Z,24.10
2024-01-05T15:16:55.153Z,23.30
2024-01-05T15:19:22.248Z,22.55
2024-01-05T15:21:49.776Z,23.65
2024-01-05T15:24:16.708Z,21.13
2024-01-05T15:26:47.436Z,21.90
2024-01-05T15:29:15.132Z,22.45
2024-01-05T15:31:42.472Z,21.67
2024-01-05T15:34:09.480Z,23.58
2024-01-05T15:36:36.966Z,22.33
2024-01-05T15:39:07.219Z,20.20
2024-01-05T15:41:35.580Z,19.90
2024-01-05T15:44:02.615Z,19.70
2024-01-05T15:46:29.676Z,22.83
2024-01-05T15:48:57.144Z,23.52
2024-01-05T15:51:27.024Z,26.88
2024-01-05T15:53:57.486Z,25.63
2024-01-05T15:56:26.797Z,24.92
2024-01-05T15:58:55.483Z,22.92
2024-01-05T16:01:24.108Z,25.00
2024-01-05T16:03:52.429Z,25.45
2024-01-05T16:06:21.214Z,26.77
2024-01-05T16:08:58.447Z,26.42
2024-01-05T16:11:37.362Z,24.77
2024-01-05T16:16:32.224Z,24.30
2024-01-05T16:19:03.915Z,39.00
2024-01-05T16:21:32.580Z,27.85
2024-01-05T16:24:03.225Z,34.20
2024-01-05T16:26:32.994Z,25.35
2024-01-05T16:28:59.779Z,40.97
2024-01-05T16:31:30.316Z,221.23
2024-01-05T16:33:59.388Z,38.80
2024-01-05T16:36:26.958Z,30.08
2024-01-05T16:38:53.855Z,30.40
2024-01-05T16:41:25.595Z,52.17
2024-01-05T16:43:53.171Z,66.25
2024-01-05T16:46:21.896Z,37.00
2024-01-05T16:48:53.988Z,24.42
2024-01-05T16:51:26.554Z,23.83
2024-01-05T16:53:56.131Z,30.90
2024-01-05T16:56:26.643Z,28.80
2024-01-05T16:58:57.716Z,25.50
2024-01-05T17:01:33.006Z,26.95
2024-01-05T17:03:59.926Z,26.33
2024-01-05T17:06:27.297Z,28.02
2024-01-05T17:08:56.273Z,26.80
2024-01-05T17:11:26.945Z,25.23
2024-01-05T17:13:53.950Z,28.40
2024-01-05T17:16:21.872Z,27.50
2024-01-05T17:18:49.759Z,23.95
2024-01-05T17:21:17.100Z,27.48
2024-01-05T17:23:43.971Z,32.50
2024-01-05T17:26:11.540Z,24.35
2024-01-05T17:28:38.563Z,27.10
2024-01-05T17:31:05.885Z,26.75
2024-01-05T17:33:32.736Z,25.95
2024-01-05T17:36:00.203Z,26.58
2024-01-05T17:38:27.581Z,24.50
2024-01-05T17:40:54.702Z,25.85
2024-01-05T17:43:21.457Z,28.77
2024-01-05T17:45:48.591Z,28.20
2024-01-05T17:48:15.567Z,27.63
2024-01-05T17:50:42.877Z,28.10
2024-01-05T17:53:11.150Z,32.95
2024-01-05T17:55:38.339Z,27.05
2024-01-05T17:58:05.192Z,26.98
2024-01-05T18:00:32.347Z,24.13
2024-01-05T18:03:00.215Z,20.25
2024-01-05T18:05:27.351Z,21.83
2024-01-05T18:07:54.592Z,22.15
2024-01-05T18:10:21.754Z,22.90
2024-01-05T18:12:48.582Z,21.95
2024-01-05T18:15:16.804Z,23.05
2024-01-05T18:17:44.318Z,21.73
2024-01-05T18:20:12.439Z,21.30
2024-01-05T18:22:39.238Z,22.33
2024-01-05T18:25:06.658Z,22.95
2024-01-05T18:27:33.539Z,22.23
2024-01-05T18:30:02.633Z,23.95
2024-01-05T18:32:29.856Z,23.83
2024-01-05T18:34:57.191Z,22.17
2024-01-05T18:37:23.941Z,21.80
2024-01-05T18:39:51.280Z,21.75
2024-01-05T18:42:18.175Z,22.08
2024-01-05T18:44:45.493Z,21.42
2024-01-05T18:47:12.447Z,22.50
2024-01-05T18:49:39.720Z,21.42
2024-01-05T18:52:06.603Z,19.38
2024-01-05T18:54:34.235Z,18.83
2024-01-05T18:57:01.103Z,17.27
2024-01-05T18:59:28.208Z,19.83
2024-01-05T19:01:55.126Z,20.10
2024-01-05T19:04:22.413Z,23.67
2024-01-05T19:06:49.501Z,22.83
2024-01-05T19:09:16.754Z,21.67
2024-01-05T19:11:43.816Z,24.13
2024-01-05T19:14:11.784Z,21.92
2024-01-05T19:16:44.831Z,20.90
2024-01-05T19:19:15.862Z,21.98
2024-01-05T19:21:53.124Z,18.95
2024-01-05T19:24:26.217Z,17.52
2024-01-05T19:26:54.384Z,19.88
2024-01-05T19:29:22.323Z,22.30
2024-01-05T19:31:49.680Z,19.88
2024-01-05T19:34:17.729Z,22.25
2024-01-05T19:36:45.699Z,22.75
2024-01-05T19:39:13.740Z,22.00
2024-01-05T19:41:48.300Z,20.40
2024-01-05T19:44:17.924Z,20.00
2024-01-05T19:46:45.140Z,20.50
2024-01-05T19:49:12.472Z,22.17
2024-01-05T19:51:49.300Z,25.27
2024-01-05T19:54:20.731Z,21.25
2024-01-05T19:56:48.957Z,21.05
2024-01-05T19:59:17.966Z,22.10
2024-01-05T20:01:47.108Z,24.15
2024-01-05T20:04:16.565Z,24.10
2024-01-05T20:06:50.104Z,26.27
2024-01-05T20:09:20.296Z,27.17
2024-01-05T20:11:47.878Z,27.80
2024-01-05T20:14:15.946Z,28.73
2024-01-05T20:16:43.320Z,28.83
2024-01-05T20:19:10.882Z,25.25
2024-01-05T20:21:39.919Z,27.45
2024-01-05T20:24:07.537Z,27.30
2024-01-05T20:26:36.109Z,28.15
2024-01-05T20:29:04.050Z,27.23
2024-01-05T20:31:32.850Z,27.85
2024-01-05T20:34:00.261Z,24.80
2024-01-05T20:36:30.083Z,23.63
2024-01-05T20:38:59.142Z,23.45
2024-01-05T20:41:26.859Z,25.85
2024-01-05T20:43:53.970Z,24.85
2024-01-05T20:46:20.786Z,24.00
2024-01-05T20:48:48.065Z,22.30
2024-01-05T20:51:21.327Z,24.27
2024-01-05T20:53:48.435Z,25.05
2024-01-05T20:56:15.244Z,24.63
2024-01-05T20:58:45.920Z,23.02
2024-01-05T21:01:13.408Z,20.85
2024-01-05T21:03:40.618Z,24.83
2024-01-05T21:06:08.600Z,26.70
2024-01-05T21:08:35.776Z,23.00
2024-01-05T21:11:02.572Z,25.83
2024-01-05T21:13:29.668Z,34.92
2024-01-05T21:15:56.962Z,52.95
2024-01-05T21:18:24.236Z,40.13
2024-01-05T21:20:51.144Z,43.38
2024-01-05T21:23:18.230Z,27.58
2024-01-05T21:25:45.290Z,24.42
2024-01-05T21:28:12.536Z,22.15
2024-01-05T21:30:40.816Z,28.52
2024-01-05T21:33:08.114Z,32.47
2024-01-05T21:35:40.457Z,32.17
2024-01-05T21:38:07.797Z,22.25
2024-01-05T21:40:34.610Z,24.70
2024-01-05T21:43:01.864Z,22.58
2024-01-05T21:45:28.823Z,39.05
2024-01-05T21:47:55.923Z,24.30
2024-01-05T21:50:23.282Z,25.17
2024-01-05T21:52:50.674Z,23.02
2024-01-05T21:55:17.570Z,21.63
2024-01-05T21:57:45.093Z,23.58
2024-01-05T22:00:12.763Z,20.50
2024-01-05T22:02:39.926Z,22.48
2024-01-05T22:05:07.046Z,22.30
2024-01-05T22:07:35.441Z,25.50
2024-01-05T22:10:02.231Z,25.80
2024-01-05T22:12:29.401Z,24.40
2024-01-05T22:14:56.186Z,31.85
2024-01-05T22:17:23.554Z,22.00
2024-01-05T22:19:50.574Z,24.92
2024-01-05T22:22:17.797Z,21.85
2024-01-05T22:24:44.572Z,20.52
2024-01-05T22:27:11.719Z,19.20
2024-01-05T22:29:38.538Z,20.98
2024-01-05T22:32:08.669Z,20.02
2024-01-05T22:34:36.936Z,22.65
2024-01-05T22:37:07.471Z,19.05
2024-01-05T22:39:35.246Z,25.90
2024-01-05T22:42:02.408Z,23.20
2024-01-05T22:44:29.193Z,24.05
2024-01-05T22:46:56.282Z,24.10
2024-01-05T22:49:23.174Z,22.77
2024-01-05T22:51:50.321Z,23.63
2024-01-05T22:54:17.219Z,21.98
2024-01-05T22:56:47.309Z,21.75
2024-01-05T22:59:14.231Z,22.23
2024-01-05T23:01:41.315Z,18.95
2024-01-05T23:04:08.211Z,21.90
2024-01-05T23:06:35.408Z,19.80
2024-01-05T23:09:02.185Z,21.13
2024-01-05T23:11:29.302Z,21.38
2024-01-05T23:13:56.094Z,18.92
2024-01-05T23:16:23.117Z,21.10
2024-01-05T23:18:50.097Z,20.70
2024-01-05T23:21:17.354Z,18.52
2024-01-05T23:23:44.268Z,21.80
2024-01-05T23:26:20.157Z,18.83
2024-01-05T23:28:47.424Z,19.42
2024-01-05T23:31:14.639Z,25.15
2024-01-05T23:33:41.749Z,23.15
2024-01-05T23:36:09.038Z,19.63
2024-01-05T23:38:35.887Z,19.80
2024-01-05T23:41:03.037Z,18.70
2024-01-05T23:43:30.007Z,19.60
2024-01-05T23:45:57.193Z,19.52
2024-01-05T23:48:24.214Z,19.27
2024-01-05T23:50:51.694Z,20.35
2024-01-05T23:53:18.547Z,18.67
2024-01-05T23:55:45.670Z,20.73
2024-01-05T23:58:12.513Z,19.25
